createdAt,value
2018-10-19T00:00:47.495Z,14.20
2018-10-19T00:03:16.143Z,14.20
2018-10-19T00:05:44.614Z,14.30
2018-10-19T00:08:13.176Z,14.30
2018-10-19T00:10:41.965Z,14.30
2018-10-19T00:13:10.691Z,14.40
2018-10-19T00:15:39.320Z,14.40
2018-10-19T00:18:08.053Z,14.40
2018-10-19T00:20:36.535Z,14.30
2018-10-19T00:23:05.270Z,14.30
2018-10-19T00:25:33.796Z,14.30
2018-10-19T00:28:02.388Z,14.20
2018-10-19T00:30:31.077Z,14.20
2018-10-19T00:32:59.608Z,14.20
2018-10-19T00:35:28.129Z,14.20
2018-10-19T00:37:56.631Z,14.10
2018-10-19T00:40:25.167Z,14.00
2018-10-19T00:42:53.646Z,13.90
2018-10-19T00:45:27.616Z,13.80
2018-10-19T00:47:56.884Z,13.80
2018-10-19T00:50:25.390Z,13.70
2018-10-19T00:52:53.903Z,13.70
2018-10-19T00:55:22.382Z,13.70
2018-10-19T00:57:50.900Z,13.70
2018-10-19T01:00:19.487Z,13.70
2018-10-19T01:02:47.966Z,13.70
2018-10-19T01:05:16.721Z,13.80
2018-10-19T01:07:45.208Z,13.80
2018-10-19T01:10:17.933Z,13.80
2018-10-19T01:12:46.449Z,13.80
2018-10-19T01:15:15.038Z,13.80
2018-10-19T01:17:43.526Z,13.90
2018-10-19T01:20:12.112Z,13.90
2018-10-19T01:22:40.667Z,13.90
2018-10-19T01:25:09.268Z,13.90
2018-10-19T01:27:37.801Z,13.90
2018-10-19T01:30:07.083Z,13.90
2018-10-19T01:32:36.033Z,13.90
2018-10-19T01:35:05.044Z,13.90
2018-10-19T01:37:33.593Z,13.90
2018-10-19T01:40:02.063Z,13.80
2018-10-19T01:42:30.563Z,13.80
2018-10-19T01:44:59.160Z,13.80
2018-10-19T01:47:27.665Z,13.70
2018-10-19T01:49:56.117Z,13.70
2018-10-19T01:52:24.692Z,13.60
2018-10-19T01:54:53.253Z,13.50
2018-10-19T01:57:22.620Z,13.50
2018-10-19T01:59:51.558Z,13.40
2018-10-19T02:02:20.235Z,13.40
2018-10-19T02:04:48.951Z,13.40
2018-10-19T02:07:17.585Z,13.40
2018-10-19T02:09:46.099Z,13.40
2018-10-19T02:12:14.706Z,13.30
2018-10-19T02:14:43.244Z,13.30
2018-10-19T02:17:11.942Z,13.20
2018-10-19T02:19:40.436Z,13.20
2018-10-19T02:22:09.333Z,13.20
2018-10-19T02:24:37.845Z,13.10
2018-10-19T02:27:06.811Z,13.10
2018-10-19T02:29:35.284Z,13.10
2018-10-19T02:32:03.744Z,13.10
2018-10-19T02:34:32.240Z,13.10
2018-10-19T02:37:00.758Z,13.10
2018-10-19T02:39:29.284Z,13.10
2018-10-19T02:41:57.744Z,13.10
2018-10-19T02:44:26.578Z,13.00
2018-10-19T02:46:55.099Z,13.00
2018-10-19T02:49:23.575Z,12.90
2018-10-19T02:51:52.056Z,12.90
2018-10-19T02:54:20.637Z,12.90
2018-10-19T02:56:49.118Z,12.90
2018-10-19T02:59:17.688Z,12.80
2018-10-19T03:01:46.089Z,12.80
2018-10-19T03:04:14.607Z,12.70
2018-10-19T03:06:43.112Z,12.60
2018-10-19T03:09:11.910Z,12.50
2018-10-19T03:11:40.673Z,12.40
2018-10-19T03:14:09.192Z,12.50
2018-10-19T03:16:37.719Z,12.40
2018-10-19T03:19:06.308Z,12.40
2018-10-19T03:21:34.784Z,12.30
2018-10-19T03:24:03.264Z,12.20
2018-10-19T03:26:31.885Z,12.20
2018-10-19T03:29:00.437Z,12.20
2018-10-19T03:31:28.986Z,12.20
2018-10-19T03:33:57.480Z,12.10
2018-10-19T03:36:26.039Z,12.10
2018-10-19T03:38:54.785Z,12.10
2018-10-19T03:41:23.326Z,11.90
2018-10-19T03:43:51.813Z,11.90
2018-10-19T03:46:20.358Z,11.80
2018-10-19T03:48:48.823Z,11.90
2018-10-19T03:51:17.428Z,11.90
2018-10-19T03:53:45.852Z,11.90
2018-10-19T03:56:14.420Z,11.80
2018-10-19T03:58:42.966Z,11.70
2018-10-19T04:01:11.557Z,11.70
2018-10-19T04:03:40.104Z,11.60
2018-10-19T04:06:08.533Z,11.60
2018-10-19T04:08:36.998Z,11.70
2018-10-19T04:11:05.642Z,11.60
2018-10-19T04:13:34.124Z,11.60
2018-10-19T04:16:02.608Z,11.60
2018-10-19T04:18:31.098Z,11.40
2018-10-19T04:20:59.821Z,11.30
2018-10-19T04:23:28.299Z,11.20
2018-10-19T04:25:56.850Z,11.20
2018-10-19T04:28:25.412Z,11.30
2018-10-19T04:30:53.895Z,11.40
2018-10-19T04:33:22.460Z,11.40
2018-10-19T04:35:50.957Z,11.40
2018-10-19T04:38:19.472Z,11.50
2018-10-19T04:40:47.948Z,11.50
2018-10-19T04:43:16.545Z,11.40
2018-10-19T04:45:45.173Z,11.50
2018-10-19T04:48:13.778Z,11.50
2018-10-19T04:50:42.315Z,11.50
2018-10-19T04:53:11.637Z,11.50
2018-10-19T04:55:40.073Z,11.60
2018-10-19T04:58:08.580Z,11.60
2018-10-19T05:00:37.101Z,11.60
2018-10-19T05:03:06.043Z,11.60
2018-10-19T05:05:34.550Z,11.70
2018-10-19T05:08:03.063Z,11.60
2018-10-19T05:10:31.562Z,11.70
2018-10-19T05:13:00.162Z,11.70
2018-10-19T05:15:28.622Z,11.70
2018-10-19T05:17:57.140Z,11.70
2018-10-19T05:20:25.729Z,11.80
2018-10-19T05:22:54.305Z,11.80
2018-10-19T05:25:22.829Z,11.80
2018-10-19T05:27:51.326Z,11.80
2018-10-19T05:30:19.804Z,11.80
2018-10-19T05:32:48.344Z,11.80
2018-10-19T05:35:16.957Z,11.90
2018-10-19T05:37:45.395Z,11.90
2018-10-19T05:40:13.915Z,11.90
2018-10-19T05:42:42.503Z,11.90
2018-10-19T05:45:12.367Z,12.00
2018-10-19T05:47:40.993Z,12.00
2018-10-19T05:50:10.847Z,12.00
2018-10-19T05:52:39.475Z,12.00
2018-10-19T05:55:08.681Z,12.00
2018-10-19T05:57:37.359Z,12.00
2018-10-19T06:00:07.580Z,12.00
2018-10-19T06:02:36.217Z,12.00
2018-10-19T06:05:05.224Z,12.10
2018-10-19T06:07:33.733Z,12.10
2018-10-19T06:10:02.244Z,12.10
2018-10-19T06:12:30.849Z,12.10
2018-10-19T06:14:59.409Z,12.10
2018-10-19T06:17:27.934Z,12.10
2018-10-19T06:19:56.475Z,12.20
2018-10-19T06:22:25.021Z,12.20
2018-10-19T06:24:53.575Z,12.20
2018-10-19T06:27:22.105Z,12.20
2018-10-19T06:29:50.626Z,12.20
2018-10-19T06:32:19.114Z,12.30
2018-10-19T06:34:47.617Z,12.30
2018-10-19T06:37:16.090Z,12.30
2018-10-19T06:39:44.662Z,12.30
2018-10-19T06:42:13.194Z,12.30
2018-10-19T06:44:41.704Z,12.30
2018-10-19T06:47:10.399Z,12.30
2018-10-19T06:49:38.809Z,12.30
2018-10-19T06:52:07.312Z,12.40
2018-10-19T06:54:35.773Z,12.40
2018-10-19T06:57:04.293Z,12.40
2018-10-19T06:59:32.800Z,12.40
2018-10-19T07:02:01.395Z,12.50
2018-10-19T07:04:29.851Z,12.50
2018-10-19T07:06:58.398Z,12.50
2018-10-19T07:09:27.486Z,12.50
2018-10-19T07:11:56.005Z,12.50
2018-10-19T07:14:24.508Z,12.50
2018-10-19T07:16:53.020Z,12.50
2018-10-19T07:19:21.537Z,12.60
2018-10-19T07:21:51.246Z,12.60
2018-10-19T07:24:19.728Z,12.60
2018-10-19T07:26:48.890Z,12.60
2018-10-19T07:29:17.445Z,12.60
2018-10-19T07:31:45.914Z,12.70
2018-10-19T07:34:14.427Z,12.70
2018-10-19T07:36:42.933Z,12.70
2018-10-19T07:39:11.502Z,12.70
2018-10-19T07:41:40.050Z,12.70
2018-10-19T07:44:08.561Z,12.70
2018-10-19T07:46:37.058Z,12.80
2018-10-19T07:49:05.572Z,12.80
2018-10-19T07:51:34.085Z,12.80
2018-10-19T07:54:02.615Z,12.80
2018-10-19T07:56:31.067Z,12.80
2018-10-19T07:58:59.524Z,12.90
2018-10-19T08:01:28.125Z,12.90
2018-10-19T08:03:56.646Z,13.00
2018-10-19T08:06:25.131Z,13.00
2018-10-19T08:08:53.610Z,13.10
2018-10-19T08:11:22.172Z,13.10
2018-10-19T08:13:50.669Z,13.20
2018-10-19T08:16:19.165Z,13.20
2018-10-19T08:18:47.671Z,13.20
2018-10-19T08:21:16.204Z,13.30
2018-10-19T08:23:44.732Z,13.30
2018-10-19T08:26:13.276Z,13.30
2018-10-19T08:28:41.873Z,13.40
2018-10-19T08:31:10.405Z,13.40
2018-10-19T08:33:39.319Z,13.40
2018-10-19T08:36:07.876Z,13.50
2018-10-19T08:38:36.374Z,13.50
2018-10-19T08:41:05.192Z,13.60
2018-10-19T08:43:33.639Z,13.60
2018-10-19T08:46:07.502Z,13.60
2018-10-19T08:48:36.088Z,13.70
2018-10-19T08:51:04.775Z,13.80
2018-10-19T08:53:33.438Z,13.80
2018-10-19T08:56:02.062Z,13.80
2018-10-19T08:58:30.591Z,13.90
2018-10-19T09:00:59.201Z,13.90
2018-10-19T09:03:27.811Z,14.00
2018-10-19T09:05:56.355Z,14.10
2018-10-19T09:08:24.934Z,14.10
2018-10-19T09:10:53.498Z,14.20
2018-10-19T09:13:21.944Z,14.30
2018-10-19T09:15:50.538Z,14.30
2018-10-19T09:18:19.216Z,14.20
2018-10-19T09:20:47.861Z,14.10
2018-10-19T09:23:16.421Z,14.20
2018-10-19T09:25:44.869Z,14.00
2018-10-19T09:28:13.487Z,14.10
2018-10-19T09:30:42.124Z,14.20
2018-10-19T09:33:11.097Z,14.30
2018-10-19T09:35:39.751Z,14.50
2018-10-19T09:38:08.172Z,14.50
2018-10-19T09:40:36.636Z,14.50
2018-10-19T09:43:05.236Z,14.60
2018-10-19T09:45:33.749Z,14.60
2018-10-19T09:48:02.276Z,14.70
2018-10-19T09:50:30.797Z,14.80
2018-10-19T09:52:59.382Z,14.70
2018-10-19T09:55:27.828Z,14.60
2018-10-19T09:57:57.078Z,14.60
2018-10-19T10:00:30.826Z,14.70
2018-10-19T10:02:59.404Z,14.70
2018-10-19T10:05:27.964Z,14.70
2018-10-19T10:07:56.531Z,14.80
2018-10-19T10:10:24.983Z,14.80
2018-10-19T10:12:53.764Z,14.70
2018-10-19T10:15:22.396Z,14.80
2018-10-19T10:17:50.867Z,14.90
2018-10-19T10:20:19.417Z,15.10
2018-10-19T10:22:47.942Z,15.20
2018-10-19T10:25:16.510Z,15.30
2018-10-19T10:27:45.044Z,15.40
2018-10-19T10:30:13.957Z,15.40
2018-10-19T10:32:42.473Z,15.60
2018-10-19T10:35:11.016Z,15.60
2018-10-19T10:37:39.598Z,15.70
2018-10-19T10:40:08.542Z,15.80
2018-10-19T10:42:37.693Z,15.90
2018-10-19T10:45:06.714Z,16.00
2018-10-19T10:47:35.392Z,16.00
2018-10-19T10:50:04.030Z,16.10
2018-10-19T10:52:32.611Z,16.20
2018-10-19T10:55:01.184Z,16.20
2018-10-19T10:57:29.687Z,16.20
2018-10-19T10:59:58.160Z,16.30
2018-10-19T11:02:26.636Z,16.30
2018-10-19T11:04:55.154Z,16.40
2018-10-19T11:07:23.802Z,16.50
2018-10-19T11:09:52.361Z,16.50
2018-10-19T11:12:20.824Z,16.60
2018-10-19T11:14:49.327Z,16.70
2018-10-19T11:17:18.159Z,16.70
2018-10-19T11:19:46.676Z,16.80
2018-10-19T11:22:15.230Z,16.90
2018-10-19T11:24:43.748Z,16.90
2018-10-19T11:27:12.401Z,17.00
2018-10-19T11:29:41.139Z,17.10
2018-10-19T11:32:09.605Z,17.20
2018-10-19T11:34:38.185Z,17.20
2018-10-19T11:37:06.817Z,17.20
2018-10-19T11:39:37.945Z,17.30
2018-10-19T11:42:06.481Z,17.30
2018-10-19T11:44:34.961Z,17.40
2018-10-19T11:47:03.470Z,17.40
2018-10-19T11:49:31.988Z,17.40
2018-10-19T11:52:00.617Z,17.50
2018-10-19T11:54:29.200Z,17.60
2018-10-19T11:56:57.734Z,17.60
2018-10-19T11:59:26.445Z,17.60
2018-10-19T12:01:54.943Z,17.70
2018-10-19T12:04:23.501Z,17.70
2018-10-19T12:06:52.018Z,17.70
2018-10-19T12:09:20.550Z,17.80
2018-10-19T12:11:49.152Z,17.80
2018-10-19T12:14:17.673Z,17.80
2018-10-19T12:16:46.341Z,17.90
2018-10-19T12:19:14.969Z,17.80
2018-10-19T12:21:43.571Z,17.90
2018-10-19T12:24:12.188Z,18.00
2018-10-19T12:26:40.906Z,18.00
2018-10-19T12:29:09.481Z,18.10
2018-10-19T12:31:38.041Z,18.00
2018-10-19T12:34:06.533Z,18.00
2018-10-19T12:36:35.073Z,18.10
2018-10-19T12:39:04.142Z,18.10
2018-10-19T12:41:32.602Z,18.20
2018-10-19T12:44:01.131Z,18.20
2018-10-19T12:46:41.954Z,18.30
2018-10-19T12:49:11.532Z,18.30
2018-10-19T12:51:40.362Z,18.40
2018-10-19T12:54:09.274Z,18.40
2018-10-19T12:56:37.720Z,18.40
2018-10-19T12:59:06.373Z,18.40
2018-10-19T13:01:35.102Z,18.50
2018-10-19T13:04:04.025Z,18.40
2018-10-19T13:06:32.570Z,18.50
2018-10-19T13:09:01.166Z,18.50
2018-10-19T13:11:29.723Z,18.50
2018-10-19T13:13:58.274Z,18.50
2018-10-19T13:16:26.813Z,18.60
2018-10-19T13:18:55.511Z,18.50
2018-10-19T13:21:23.991Z,18.60
2018-10-19T13:23:52.543Z,18.70
2018-10-19T13:26:21.111Z,18.70
2018-10-19T13:28:49.744Z,18.70
2018-10-19T13:31:18.354Z,18.60
2018-10-19T13:33:47.166Z,18.60
2018-10-19T13:36:15.812Z,18.60
2018-10-19T13:38:44.289Z,18.60
2018-10-19T13:41:13.162Z,18.60
2018-10-19T13:43:42.491Z,18.50
2018-10-19T13:46:10.989Z,18.60
2018-10-19T13:48:39.492Z,18.60
2018-10-19T13:51:08.115Z,18.50
2018-10-19T13:53:36.546Z,18.50
2018-10-19T13:56:05.126Z,18.50
2018-10-19T13:58:33.635Z,18.60
2018-10-19T14:01:02.281Z,18.70
2018-10-19T14:03:30.751Z,18.60
2018-10-19T14:06:00.282Z,18.70
2018-10-19T14:08:28.768Z,18.70
2018-10-19T14:10:57.301Z,18.80
2018-10-19T14:13:26.363Z,18.80
2018-10-19T14:15:54.975Z,18.90
2018-10-19T14:18:23.500Z,18.90
2018-10-19T14:20:52.199Z,19.00
2018-10-19T14:23:20.776Z,19.00
2018-10-19T14:25:49.461Z,19.00
2018-10-19T14:28:18.742Z,19.00
2018-10-19T14:30:47.347Z,19.00
2018-10-19T14:33:16.119Z,19.00
2018-10-19T14:35:44.649Z,19.00
2018-10-19T14:38:13.200Z,19.00
2018-10-19T14:40:41.913Z,19.00
2018-10-19T14:43:10.421Z,19.00
2018-10-19T14:45:38.929Z,19.00
2018-10-19T14:48:07.486Z,18.90
2018-10-19T14:50:36.097Z,19.00
2018-10-19T14:53:05.086Z,19.00
2018-10-19T14:55:33.620Z,19.00
2018-10-19T14:58:02.207Z,19.00
2018-10-19T15:00:30.958Z,19.00
2018-10-19T15:02:59.482Z,19.00
2018-10-19T15:05:28.406Z,19.00
2018-10-19T15:07:57.638Z,19.00
2018-10-19T15:10:26.418Z,18.90
2018-10-19T15:12:55.051Z,18.90
2018-10-19T15:15:24.148Z,18.90
2018-10-19T15:17:52.659Z,18.90
2018-10-19T15:20:21.366Z,18.90
2018-10-19T15:22:50.019Z,18.90
2018-10-19T15:25:18.609Z,18.90
2018-10-19T15:27:48.108Z,18.90
2018-10-19T15:30:18.413Z,18.80
2018-10-19T15:32:47.009Z,18.80
2018-10-19T15:35:15.603Z,18.80
2018-10-19T15:37:44.204Z,18.80
2018-10-19T15:40:13.168Z,18.80
2018-10-19T15:42:41.671Z,18.70
2018-10-19T15:45:12.025Z,18.70
2018-10-19T15:47:40.510Z,18.70
2018-10-19T15:50:09.292Z,18.70
2018-10-19T15:52:37.844Z,18.80
2018-10-19T15:55:06.725Z,18.70
2018-10-19T15:57:35.299Z,18.70
2018-10-19T16:00:04.093Z,18.70
2018-10-19T16:02:32.682Z,18.70
2018-10-19T16:05:01.255Z,18.70
2018-10-19T16:07:29.786Z,18.70
2018-10-19T16:09:58.346Z,18.60
2018-10-19T16:12:26.870Z,18.40
2018-10-19T16:14:55.417Z,18.30
2018-10-19T16:17:24.196Z,18.20
2018-10-19T16:19:52.717Z,18.10
2018-10-19T16:22:21.283Z,18.00
2018-10-19T16:24:50.204Z,17.90
2018-10-19T16:27:18.874Z,17.80
2018-10-19T16:29:47.934Z,17.70
2018-10-19T16:32:16.585Z,17.60
2018-10-19T16:34:45.345Z,17.40
2018-10-19T16:37:13.883Z,17.30
2018-10-19T16:39:42.424Z,17.30
2018-10-19T16:42:11.157Z,17.20
2018-10-19T16:44:39.717Z,17.20
2018-10-19T16:47:08.642Z,17.10
2018-10-19T16:49:37.130Z,17.00
2018-10-19T16:52:06.036Z,16.80
2018-10-19T16:54:34.539Z,16.60
2018-10-19T16:57:03.771Z,16.50
2018-10-19T16:59:32.376Z,16.40
2018-10-19T17:02:01.389Z,16.30
2018-10-19T17:04:30.044Z,16.00
2018-10-19T17:06:58.670Z,15.80
2018-10-19T17:09:27.178Z,15.70
2018-10-19T17:11:55.737Z,15.50
2018-10-19T17:14:24.411Z,15.40
2018-10-19T17:16:53.102Z,15.40
2018-10-19T17:19:21.739Z,15.20
2018-10-19T17:21:50.131Z,15.20
2018-10-19T17:24:18.775Z,15.10
2018-10-19T17:26:47.579Z,15.20
2018-10-19T17:29:16.249Z,15.20
2018-10-19T17:31:44.756Z,15.30
2018-10-19T17:34:13.471Z,15.20
2018-10-19T17:36:42.769Z,15.20
2018-10-19T17:39:11.952Z,15.20
2018-10-19T17:41:40.581Z,15.30
2018-10-19T17:44:09.443Z,15.20
2018-10-19T17:46:38.882Z,15.20
2018-10-19T17:49:07.853Z,15.10
2018-10-19T17:51:37.003Z,15.20
2018-10-19T17:54:07.937Z,15.20
2018-10-19T17:56:37.916Z,15.10
2018-10-19T17:59:07.416Z,15.20
2018-10-19T18:01:36.313Z,15.10
2018-10-19T18:04:05.183Z,15.20
2018-10-19T18:06:33.956Z,15.20
2018-10-19T18:09:02.744Z,15.30
2018-10-19T18:11:32.125Z,15.30
2018-10-19T18:14:01.332Z,15.30
2018-10-19T18:16:30.339Z,15.30
2018-10-19T18:18:59.287Z,15.20
2018-10-19T18:21:28.529Z,15.10
2018-10-19T18:23:57.392Z,15.00
2018-10-19T18:26:26.307Z,14.80
2018-10-19T18:28:55.161Z,14.80
2018-10-19T18:31:23.946Z,14.70
2018-10-19T18:33:52.645Z,14.70
2018-10-19T18:36:21.262Z,14.60
2018-10-19T18:38:50.065Z,14.60
2018-10-19T18:41:19.255Z,14.60
2018-10-19T18:43:47.831Z,14.60
2018-10-19T18:46:16.420Z,14.70
2018-10-19T18:48:44.982Z,14.70
2018-10-19T18:51:13.805Z,14.70
2018-10-19T18:53:42.814Z,14.60
2018-10-19T18:56:12.114Z,14.50
2018-10-19T18:58:41.178Z,14.50
2018-10-19T19:01:10.401Z,14.60
2018-10-19T19:03:38.954Z,14.50
2018-10-19T19:06:11.483Z,14.40
2018-10-19T19:08:40.590Z,14.50
2018-10-19T19:11:09.129Z,14.50
2018-10-19T19:13:46.284Z,14.40
2018-10-19T19:16:20.243Z,14.30
2018-10-19T19:18:49.107Z,14.30
2018-10-19T19:21:18.647Z,14.40
2018-10-19T19:23:52.640Z,14.40
2018-10-19T19:26:22.915Z,14.30
2018-10-19T19:28:51.604Z,14.30
2018-10-19T19:31:20.222Z,14.30
2018-10-19T19:33:54.271Z,14.30
2018-10-19T19:36:22.825Z,14.20
2018-10-19T19:38:51.358Z,14.20
2018-10-19T19:41:28.912Z,14.20
2018-10-19T19:43:57.569Z,14.10
2018-10-19T19:46:26.082Z,13.90
2018-10-19T19:48:59.841Z,13.90
2018-10-19T19:51:29.282Z,13.90
2018-10-19T19:53:58.744Z,13.80
2018-10-19T19:56:27.496Z,13.80
2018-10-19T19:58:56.087Z,13.80
2018-10-19T20:01:26.354Z,13.60
2018-10-19T20:03:54.942Z,13.50
2018-10-19T20:06:24.050Z,13.30
2018-10-19T20:08:52.885Z,13.20
2018-10-19T20:11:22.241Z,13.10
2018-10-19T20:13:50.914Z,13.10
2018-10-19T20:16:19.585Z,12.90
2018-10-19T20:18:48.624Z,12.90
2018-10-19T20:21:17.363Z,12.80
2018-10-19T20:23:46.119Z,12.80
2018-10-19T20:26:14.798Z,13.00
2018-10-19T20:28:44.012Z,13.10
2018-10-19T20:31:13.995Z,13.20
2018-10-19T20:33:42.575Z,13.30
2018-10-19T20:36:11.642Z,13.30
2018-10-19T20:38:40.598Z,13.30
2018-10-19T20:41:09.953Z,13.40
2018-10-19T20:43:39.032Z,13.30
2018-10-19T20:46:08.335Z,13.40
2018-10-19T20:48:37.608Z,13.30
2018-10-19T20:51:06.996Z,13.20
2018-10-19T20:53:36.400Z,13.30
2018-10-19T20:56:05.423Z,13.30
2018-10-19T20:58:34.439Z,13.30
2018-10-19T21:01:03.581Z,13.30
2018-10-19T21:03:32.880Z,13.30
2018-10-19T21:06:02.228Z,13.30
2018-10-19T21:08:30.858Z,13.20
2018-10-19T21:10:59.459Z,13.20
2018-10-19T21:13:28.102Z,13.20
2018-10-19T21:15:56.549Z,13.10
2018-10-19T21:18:25.077Z,13.10
2018-10-19T21:20:53.595Z,12.90
2018-10-19T21:23:22.201Z,12.80
2018-10-19T21:25:50.937Z,12.70
2018-10-19T21:28:19.583Z,12.60
2018-10-19T21:30:48.190Z,12.50
2018-10-19T21:33:16.889Z,12.40
2018-10-19T21:35:45.469Z,12.50
2018-10-19T21:38:14.023Z,12.50
2018-10-19T21:40:42.540Z,12.60
2018-10-19T21:43:11.048Z,12.60
2018-10-19T21:45:39.655Z,12.60
2018-10-19T21:48:08.200Z,12.50
2018-10-19T21:50:36.923Z,12.50
2018-10-19T21:53:05.771Z,12.40
2018-10-19T21:55:34.205Z,12.60
2018-10-19T21:58:02.697Z,12.70
2018-10-19T22:00:31.244Z,12.80
2018-10-19T22:02:59.797Z,13.00
2018-10-19T22:05:28.307Z,13.00
2018-10-19T22:07:57.256Z,12.90
2018-10-19T22:10:25.777Z,12.90
2018-10-19T22:12:54.372Z,12.80
2018-10-19T22:15:22.849Z,12.70
2018-10-19T22:17:51.431Z,12.70
2018-10-19T22:20:19.931Z,12.70
2018-10-19T22:22:48.538Z,12.70
2018-10-19T22:25:17.278Z,12.60
2018-10-19T22:27:45.699Z,12.60
2018-10-19T22:30:14.317Z,12.50
2018-10-19T22:32:42.827Z,12.40
2018-10-19T22:35:11.468Z,12.40
2018-10-19T22:37:40.003Z,12.30
2018-10-19T22:40:08.532Z,12.20
2018-10-19T22:42:37.047Z,12.20
2018-10-19T22:45:05.743Z,12.10
2018-10-19T22:47:34.254Z,12.20
2018-10-19T22:50:02.852Z,12.20
2018-10-19T22:52:31.408Z,12.30
2018-10-19T22:54:59.993Z,12.20
2018-10-19T22:57:28.498Z,12.30
2018-10-19T22:59:57.010Z,12.20
2018-10-19T23:02:25.579Z,12.20
2018-10-19T23:04:54.103Z,12.20
2018-10-19T23:07:22.550Z,12.20
2018-10-19T23:09:51.052Z,12.20
2018-10-19T23:12:19.584Z,12.30
2018-10-19T23:14:48.151Z,12.30
2018-10-19T23:17:16.752Z,12.30
2018-10-19T23:19:45.255Z,12.20
2018-10-19T23:22:13.783Z,12.20
2018-10-19T23:24:42.255Z,12.10
2018-10-19T23:27:10.848Z,12.10
2018-10-19T23:29:39.355Z,12.10
2018-10-19T23:32:07.848Z,12.10
2018-10-19T23:34:36.428Z,12.00
2018-10-19T23:37:05.029Z,12.00
2018-10-19T23:39:33.573Z,12.00
2018-10-19T23:42:02.173Z,12.10
2018-10-19T23:44:30.653Z,12.10
2018-10-19T23:46:59.177Z,12.20
2018-10-19T23:49:27.711Z,12.20
2018-10-19T23:51:56.236Z,12.00
2018-10-19T23:54:24.713Z,12.00
2018-10-19T23:56:53.218Z,12.00
2018-10-19T23:59:21.713Z,11.90
